sensor_id;sensor_type;location;lat;lon;timestamp;temperature;humidity
71117;SHT31;58775;46.992;9.518;2023-03-01T00:01:31;0.59;80.53
71117;SHT31;58775;46.992;9.518;2023-03-01T00:03:33;0.41;81.66
71117;SHT31;58775;46.992;9.518;2023-03-01T00:05:34;0.31;81.99
71117;SHT31;58775;46.992;9.518;2023-03-01T00:07:34;0.24;82.99
71117;SHT31;58775;46.992;9.518;2023-03-01T00:09:36;0.20;83.14
71117;SHT31;58775;46.992;9.518;2023-03-01T00:11:38;0.17;82.20
71117;SHT31;58775;46.992;9.518;2023-03-01T00:13:40;0.18;82.40
71117;SHT31;58775;46.992;9.518;2023-03-01T00:15:41;0.36;81.89
71117;SHT31;58775;46.992;9.518;2023-03-01T00:17:42;0.36;81.89
71117;SHT31;58775;46.992;9.518;2023-03-01T00:19:43;0.40;81.40
71117;SHT31;58775;46.992;9.518;2023-03-01T00:21:44;0.41;81.15
71117;SHT31;58775;46.992;9.518;2023-03-01T00:23:45;0.42;80.96
71117;SHT31;58775;46.992;9.518;2023-03-01T00:25:46;0.55;80.52
71117;SHT31;58775;46.992;9.518;2023-03-01T00:27:47;0.31;80.83
71117;SHT31;58775;46.992;9.518;2023-03-01T00:29:49;0.40;80.80
71117;SHT31;58775;46.992;9.518;2023-03-01T00:31:50;0.25;81.02
71117;SHT31;58775;46.992;9.518;2023-03-01T00:34:01;0.21;81.09
71117;SHT31;58775;46.992;9.518;2023-03-01T00:36:03;0.11;81.71
71117;SHT31;58775;46.992;9.518;2023-03-01T00:38:04;0.17;81.24
71117;SHT31;58775;46.992;9.518;2023-03-01T00:40:06;0.08;81.79
71117;SHT31;58775;46.992;9.518;2023-03-01T00:42:07;0.03;82.37
71117;SHT31;58775;46.992;9.518;2023-03-01T00:44:09;0.03;82.19
71117;SHT31;58775;46.992;9.518;2023-03-01T00:46:15;0.07;81.90
71117;SHT31;58775;46.992;9.518;2023-03-01T00:48:17;0.24;81.04
71117;SHT31;58775;46.992;9.518;2023-03-01T00:50:19;0.27;80.95
71117;SHT31;58775;46.992;9.518;2023-03-01T00:52:20;0.27;80.56
71117;SHT31;58775;46.992;9.518;2023-03-01T00:54:21;0.28;80.47
71117;SHT31;58775;46.992;9.518;2023-03-01T00:56:23;0.32;80.31
71117;SHT31;58775;46.992;9.518;2023-03-01T00:58:24;0.34;80.46
71117;SHT31;58775;46.992;9.518;2023-03-01T01:00:25;0.40;80.31
71117;SHT31;58775;46.992;9.518;2023-03-01T01:02:27;0.24;81.12
71117;SHT31;58775;46.992;9.518;2023-03-01T01:04:28;0.15;81.43
71117;SHT31;58775;46.992;9.518;2023-03-01T01:06:40;0.20;81.04
71117;SHT31;58775;46.992;9.518;2023-03-01T01:08:46;0.17;80.98
71117;SHT31;58775;46.992;9.518;2023-03-01T01:10:47;0.15;81.13
71117;SHT31;58775;46.992;9.518;2023-03-01T01:12:48;0.11;81.38
71117;SHT31;58775;46.992;9.518;2023-03-01T01:14:49;0.08;81.64
71117;SHT31;58775;46.992;9.518;2023-03-01T01:16:50;0.08;81.29
71117;SHT31;58775;46.992;9.518;2023-03-01T01:18:52;0.03;81.29
71117;SHT31;58775;46.992;9.518;2023-03-01T01:20:53;0.01;81.05
71117;SHT31;58775;46.992;9.518;2023-03-01T01:22:54;-0.03;81.17
71117;SHT31;58775;46.992;9.518;2023-03-01T01:24:55;0.07;81.10
71117;SHT31;58775;46.992;9.518;2023-03-01T01:26:56;-0.04;81.83
71117;SHT31;58775;46.992;9.518;2023-03-01T01:28:58;0.00;81.74
71117;SHT31;58775;46.992;9.518;2023-03-01T01:31:00;0.03;81.54
71117;SHT31;58775;46.992;9.518;2023-03-01T01:33:01;-0.03;81.56
71117;SHT31;58775;46.992;9.518;2023-03-01T01:35:03;-0.18;82.19
71117;SHT31;58775;46.992;9.518;2023-03-01T01:37:04;-0.15;81.84
71117;SHT31;58775;46.992;9.518;2023-03-01T01:39:08;-0.15;82.04
71117;SHT31;58775;46.992;9.518;2023-03-01T01:41:16;-0.28;82.47
71117;SHT31;58775;46.992;9.518;2023-03-01T01:43:35;-0.21;81.84
71117;SHT31;58775;46.992;9.518;2023-03-01T01:45:37;-0.13;81.70
71117;SHT31;58775;46.992;9.518;2023-03-01T01:47:38;-0.28;81.88
71117;SHT31;58775;46.992;9.518;2023-03-01T01:49:46;-0.54;82.69
71117;SHT31;58775;46.992;9.518;2023-03-01T01:51:50;-0.54;83.30
71117;SHT31;58775;46.992;9.518;2023-03-01T01:53:58;-0.41;82.88
71117;SHT31;58775;46.992;9.518;2023-03-01T01:56:01;-0.61;83.07
71117;SHT31;58775;46.992;9.518;2023-03-01T01:58:05;-0.50;82.49
71117;SHT31;58775;46.992;9.518;2023-03-01T02:00:16;-0.75;83.42
71117;SHT31;58775;46.992;9.518;2023-03-01T02:02:18;-0.71;83.68
71117;SHT31;58775;46.992;9.518;2023-03-01T02:04:20;-0.58;82.97
71117;SHT31;58775;46.992;9.518;2023-03-01T02:06:27;-0.47;82.62
71117;SHT31;58775;46.992;9.518;2023-03-01T02:08:36;-0.40;82.03
71117;SHT31;58775;46.992;9.518;2023-03-01T02:10:38;-0.34;82.04
71117;SHT31;58775;46.992;9.518;2023-03-01T02:12:40;-0.42;82.22
71117;SHT31;58775;46.992;9.518;2023-03-01T02:14:41;-0.65;83.43
71117;SHT31;58775;46.992;9.518;2023-03-01T02:16:42;-0.66;83.76
71117;SHT31;58775;46.992;9.518;2023-03-01T02:18:44;-0.75;84.05
71117;SHT31;58775;46.992;9.518;2023-03-01T02:23:01;-0.76;83.54
71117;SHT31;58775;46.992;9.518;2023-03-01T02:27:21;-1.05;85.58
71117;SHT31;58775;46.992;9.518;2023-03-01T02:29:26;-0.93;84.97
71117;SHT31;58775;46.992;9.518;2023-03-01T02:31:27;-0.85;84.46
71117;SHT31;58775;46.992;9.518;2023-03-01T02:33:45;-0.81;84.21
71117;SHT31;58775;46.992;9.518;2023-03-01T02:35:48;-0.74;83.73
71117;SHT31;58775;46.992;9.518;2023-03-01T02:37:50;-1.02;83.94
71117;SHT31;58775;46.992;9.518;2023-03-01T02:39:56;-0.95;84.33
71117;SHT31;58775;46.992;9.518;2023-03-01T02:41:59;-0.97;84.24
71117;SHT31;58775;46.992;9.518;2023-03-01T02:44:01;-0.92;84.21
71117;SHT31;58775;46.992;9.518;2023-03-01T02:46:07;-0.86;83.56
71117;SHT31;58775;46.992;9.518;2023-03-01T02:48:08;-1.07;84.50
71117;SHT31;58775;46.992;9.518;2023-03-01T02:50:37;-1.25;85.14
71117;SHT31;58775;46.992;9.518;2023-03-01T02:52:48;-1.36;86.41
71117;SHT31;58775;46.992;9.518;2023-03-01T02:55:09;-1.25;86.27
71117;SHT31;58775;46.992;9.518;2023-03-01T02:57:12;-1.17;85.84
71117;SHT31;58775;46.992;9.518;2023-03-01T02:59:14;-1.06;85.21
71117;SHT31;58775;46.992;9.518;2023-03-01T03:01:15;-0.93;84.77
71117;SHT31;58775;46.992;9.518;2023-03-01T03:03:19;-0.78;83.89
71117;SHT31;58775;46.992;9.518;2023-03-01T03:05:24;-0.91;84.52
71117;SHT31;58775;46.992;9.518;2023-03-01T03:07:28;-1.02;85.34
71117;SHT31;58775;46.992;9.518;2023-03-01T03:09:29;-1.06;85.15
71117;SHT31;58775;46.992;9.518;2023-03-01T03:11:30;-0.95;84.42
71117;SHT31;58775;46.992;9.518;2023-03-01T03:13:33;-0.91;84.41
71117;SHT31;58775;46.992;9.518;2023-03-01T03:15:34;-0.88;84.65
71117;SHT31;58775;46.992;9.518;2023-03-01T03:17:41;-0.84;84.54
71117;SHT31;58775;46.992;9.518;2023-03-01T03:19:43;-0.76;84.15
71117;SHT31;58775;46.992;9.518;2023-03-01T03:21:46;-0.71;83.44
71117;SHT31;58775;46.992;9.518;2023-03-01T03:23:47;-0.64;83.19
71117;SHT31;58775;46.992;9.518;2023-03-01T03:25:49;-0.69;83.25
71117;SHT31;58775;46.992;9.518;2023-03-01T03:27:52;-0.71;83.21
71117;SHT31;58775;46.992;9.518;2023-03-01T03:29:59;-0.61;82.92
71117;SHT31;58775;46.992;9.518;2023-03-01T03:32:00;-0.68;83.57
71117;SHT31;58775;46.992;9.518;2023-03-01T03:34:01;-0.66;83.90
71117;SHT31;58775;46.992;9.518;2023-03-01T03:36:02;-0.68;84.22
71117;SHT31;58775;46.992;9.518;2023-03-01T03:38:06;-0.61;84.04
71117;SHT31;58775;46.992;9.518;2023-03-01T03:40:15;-0.58;84.07
71117;SHT31;58775;46.992;9.518;2023-03-01T03:42:16;-0.62;83.98
71117;SHT31;58775;46.992;9.518;2023-03-01T03:44:18;-0.55;83.89
71117;SHT31;58775;46.992;9.518;2023-03-01T03:46:19;-0.55;83.59
71117;SHT31;58775;46.992;9.518;2023-03-01T03:48:20;-0.47;83.39
71117;SHT31;58775;46.992;9.518;2023-03-01T03:50:21;-0.45;83.39
71117;SHT31;58775;46.992;9.518;2023-03-01T03:52:22;-0.44;83.01
71117;SHT31;58775;46.992;9.518;2023-03-01T03:54:23;-0.38;82.83
71117;SHT31;58775;46.992;9.518;2023-03-01T03:56:24;-0.33;82.51
71117;SHT31;58775;46.992;9.518;2023-03-01T03:58:26;-0.44;82.78
71117;SHT31;58775;46.992;9.518;2023-03-01T04:00:28;-0.44;83.42
71117;SHT31;58775;46.992;9.518;2023-03-01T04:02:29;-0.44;83.43
71117;SHT31;58775;46.992;9.518;2023-03-01T04:04:30;-0.52;83.36
71117;SHT31;58775;46.992;9.518;2023-03-01T04:06:32;-0.45;83.26
71117;SHT31;58775;46.992;9.518;2023-03-01T04:08:33;-0.42;83.01
71117;SHT31;58775;46.992;9.518;2023-03-01T04:10:42;-0.42;82.57
71117;SHT31;58775;46.992;9.518;2023-03-01T04:12:44;-0.44;82.18
71117;SHT31;58775;46.992;9.518;2023-03-01T04:14:45;-0.44;82.36
71117;SHT31;58775;46.992;9.518;2023-03-01T04:16:46;-0.58;83.09
71117;SHT31;58775;46.992;9.518;2023-03-01T04:18:47;-0.65;83.17
71117;SHT31;58775;46.992;9.518;2023-03-01T04:20:48;-0.61;82.95
71117;SHT31;58775;46.992;9.518;2023-03-01T04:22:51;-0.52;82.75
71117;SHT31;58775;46.992;9.518;2023-03-01T04:24:52;-0.54;82.75
71117;SHT31;58775;46.992;9.518;2023-03-01T04:26:53;-0.52;83.07
71117;SHT31;58775;46.992;9.518;2023-03-01T04:28:54;-0.50;82.90
71117;SHT31;58775;46.992;9.518;2023-03-01T04:30:57;-0.54;83.07
71117;SHT31;58775;46.992;9.518;2023-03-01T04:32:59;-0.48;83.06
71117;SHT31;58775;46.992;9.518;2023-03-01T04:35:00;-0.47;83.34
71117;SHT31;58775;46.992;9.518;2023-03-01T04:37:01;-0.42;83.46
71117;SHT31;58775;46.992;9.518;2023-03-01T04:39:02;-0.41;83.32
71117;SHT31;58775;46.992;9.518;2023-03-01T04:41:13;-0.44;83.37
71117;SHT31;58775;46.992;9.518;2023-03-01T04:43:15;-0.45;83.16
71117;SHT31;58775;46.992;9.518;2023-03-01T04:45:16;-0.44;83.33
71117;SHT31;58775;46.992;9.518;2023-03-01T04:47:17;-0.52;83.60
71117;SHT31;58775;46.992;9.518;2023-03-01T04:49:18;-0.44;83.70
71117;SHT31;58775;46.992;9.518;2023-03-01T04:51:19;-0.37;83.50
71117;SHT31;58775;46.992;9.518;2023-03-01T04:53:20;-0.28;83.37
71117;SHT31;58775;46.992;9.518;2023-03-01T04:55:21;-0.18;82.66
71117;SHT31;58775;46.992;9.518;2023-03-01T04:57:21;-0.23;82.75
71117;SHT31;58775;46.992;9.518;2023-03-01T04:59:22;-0.17;82.21
71117;SHT31;58775;46.992;9.518;2023-03-01T05:01:23;-0.18;81.93
71117;SHT31;58775;46.992;9.518;2023-03-01T05:03:24;-0.23;82.26
71117;SHT31;58775;46.992;9.518;2023-03-01T05:05:28;-0.21;81.94
71117;SHT31;58775;46.992;9.518;2023-03-01T05:07:29;-0.20;81.89
71117;SHT31;58775;46.992;9.518;2023-03-01T05:09:30;-0.13;81.69
71117;SHT31;58775;46.992;9.518;2023-03-01T05:11:31;-0.13;81.70
71117;SHT31;58775;46.992;9.518;2023-03-01T05:13:37;-0.10;81.99
71117;SHT31;58775;46.992;9.518;2023-03-01T05:15:39;-0.06;82.13
71117;SHT31;58775;46.992;9.518;2023-03-01T05:17:40;-0.04;82.50
71117;SHT31;58775;46.992;9.518;2023-03-01T05:19:41;0.07;82.11
71117;SHT31;58775;46.992;9.518;2023-03-01T05:21:43;0.14;81.91
71117;SHT31;58775;46.992;9.518;2023-03-01T05:24:02;0.11;81.33
71117;SHT31;58775;46.992;9.518;2023-03-01T05:26:04;0.01;81.35
71117;SHT31;58775;46.992;9.518;2023-03-01T05:28:10;-0.07;82.23
71117;SHT31;58775;46.992;9.518;2023-03-01T05:30:12;0.03;81.99
71117;SHT31;58775;46.992;9.518;2023-03-01T05:32:16;0.03;82.06
71117;SHT31;58775;46.992;9.518;2023-03-01T05:34:17;0.06;82.47
71117;SHT31;58775;46.992;9.518;2023-03-01T05:36:18;0.14;81.87
71117;SHT31;58775;46.992;9.518;2023-03-01T05:38:20;0.15;81.85
71117;SHT31;58775;46.992;9.518;2023-03-01T05:40:23;0.04;81.93
71117;SHT31;58775;46.992;9.518;2023-03-01T05:42:24;0.21;81.57
71117;SHT31;58775;46.992;9.518;2023-03-01T05:44:27;0.03;81.82
71117;SHT31;58775;46.992;9.518;2023-03-01T05:46:28;0.08;81.53
71117;SHT31;58775;46.992;9.518;2023-03-01T05:48:29;-0.09;81.76
71117;SHT31;58775;46.992;9.518;2023-03-01T05:50:35;-0.10;81.87
71117;SHT31;58775;46.992;9.518;2023-03-01T05:52:36;-0.04;81.84
71117;SHT31;58775;46.992;9.518;2023-03-01T05:54:38;0.00;81.84
71117;SHT31;58775;46.992;9.518;2023-03-01T05:56:39;0.07;82.16
71117;SHT31;58775;46.992;9.518;2023-03-01T05:58:40;0.07;82.54
71117;SHT31;58775;46.992;9.518;2023-03-01T06:00:42;0.13;82.16
71117;SHT31;58775;46.992;9.518;2023-03-01T06:02:43;0.11;82.12
71117;SHT31;58775;46.992;9.518;2023-03-01T06:04:44;0.14;82.17
71117;SHT31;58775;46.992;9.518;2023-03-01T06:06:45;0.17;82.11
71117;SHT31;58775;46.992;9.518;2023-03-01T06:08:46;0.15;82.36
71117;SHT31;58775;46.992;9.518;2023-03-01T06:10:47;0.17;82.39
71117;SHT31;58775;46.992;9.518;2023-03-01T06:12:48;0.24;82.33
71117;SHT31;58775;46.992;9.518;2023-03-01T06:14:49;0.22;82.52
71117;SHT31;58775;46.992;9.518;2023-03-01T06:16:50;0.21;82.61
71117;SHT31;58775;46.992;9.518;2023-03-01T06:18:51;0.22;81.86
71117;SHT31;58775;46.992;9.518;2023-03-01T06:20:54;0.25;81.83
71117;SHT31;58775;46.992;9.518;2023-03-01T06:22:55;0.21;82.23
71117;SHT31;58775;46.992;9.518;2023-03-01T06:24:57;0.15;82.15
71117;SHT31;58775;46.992;9.518;2023-03-01T06:26:58;0.03;82.50
71117;SHT31;58775;46.992;9.518;2023-03-01T06:28:58;0.13;82.02
71117;SHT31;58775;46.992;9.518;2023-03-01T06:30:59;0.18;81.77
71117;SHT31;58775;46.992;9.518;2023-03-01T06:33:00;0.18;81.57
71117;SHT31;58775;46.992;9.518;2023-03-01T06:35:04;0.07;82.04
71117;SHT31;58775;46.992;9.518;2023-03-01T06:37:07;0.17;81.67
71117;SHT31;58775;46.992;9.518;2023-03-01T06:39:07;0.17;81.95
71117;SHT31;58775;46.992;9.518;2023-03-01T06:41:09;0.18;81.91
71117;SHT31;58775;46.992;9.518;2023-03-01T06:43:09;0.22;81.52
71117;SHT31;58775;46.992;9.518;2023-03-01T06:45:11;0.31;81.27
71117;SHT31;58775;46.992;9.518;2023-03-01T06:47:12;0.27;81.38
71117;SHT31;58775;46.992;9.518;2023-03-01T06:49:13;0.32;80.77
71117;SHT31;58775;46.992;9.518;2023-03-01T06:51:14;0.25;81.01
71117;SHT31;58775;46.992;9.518;2023-03-01T06:53:15;0.14;81.66
71117;SHT31;58775;46.992;9.518;2023-03-01T06:55:16;0.18;81.27
71117;SHT31;58775;46.992;9.518;2023-03-01T06:57:17;-0.03;82.18
71117;SHT31;58775;46.992;9.518;2023-03-01T06:59:18;-0.14;82.51
71117;SHT31;58775;46.992;9.518;2023-03-01T07:01:19;-0.11;82.91
71117;SHT31;58775;46.992;9.518;2023-03-01T07:03:20;0.13;81.82
71117;SHT31;58775;46.992;9.518;2023-03-01T07:05:21;0.14;81.88
71117;SHT31;58775;46.992;9.518;2023-03-01T07:07:22;0.27;81.87
71117;SHT31;58775;46.992;9.518;2023-03-01T07:09:24;0.37;81.62
71117;SHT31;58775;46.992;9.518;2023-03-01T07:11:25;0.47;81.12
71117;SHT31;58775;46.992;9.518;2023-03-01T07:13:26;0.66;80.77
71117;SHT31;58775;46.992;9.518;2023-03-01T07:15:27;0.62;81.15
71117;SHT31;58775;46.992;9.518;2023-03-01T07:17:28;0.76;80.72
71117;SHT31;58775;46.992;9.518;2023-03-01T07:19:29;0.88;79.11
71117;SHT31;58775;46.992;9.518;2023-03-01T07:21:30;0.88;80.08
71117;SHT31;58775;46.992;9.518;2023-03-01T07:23:32;0.92;80.23
71117;SHT31;58775;46.992;9.518;2023-03-01T07:25:33;1.16;79.15
71117;SHT31;58775;46.992;9.518;2023-03-01T07:27:34;1.61;78.13
71117;SHT31;58775;46.992;9.518;2023-03-01T07:29:35;1.82;77.66
71117;SHT31;58775;46.992;9.518;2023-03-01T07:31:37;2.35;74.80
71117;SHT31;58775;46.992;9.518;2023-03-01T07:33:38;2.28;74.17
71117;SHT31;58775;46.992;9.518;2023-03-01T07:35:39;2.87;72.96
71117;SHT31;58775;46.992;9.518;2023-03-01T07:37:40;3.56;70.73
71117;SHT31;58775;46.992;9.518;2023-03-01T07:39:41;3.79;68.97
71117;SHT31;58775;46.992;9.518;2023-03-01T07:41:44;4.40;67.74
71117;SHT31;58775;46.992;9.518;2023-03-01T07:43:45;4.71;66.25
71117;SHT31;58775;46.992;9.518;2023-03-01T07:45:46;5.05;65.10
71117;SHT31;58775;46.992;9.518;2023-03-01T07:47:47;4.88;63.97
71117;SHT31;58775;46.992;9.518;2023-03-01T07:49:50;5.15;64.55
71117;SHT31;58775;46.992;9.518;2023-03-01T07:51:51;5.19;63.78
71117;SHT31;58775;46.992;9.518;2023-03-01T07:53:53;5.63;63.25
71117;SHT31;58775;46.992;9.518;2023-03-01T07:56:05;5.93;62.32
71117;SHT31;58775;46.992;9.518;2023-03-01T07:58:06;6.18;61.45
71117;SHT31;58775;46.992;9.518;2023-03-01T08:00:11;6.26;60.85
71117;SHT31;58775;46.992;9.518;2023-03-01T08:02:15;6.79;59.88
71117;SHT31;58775;46.992;9.518;2023-03-01T08:04:16;7.28;59.66
71117;SHT31;58775;46.992;9.518;2023-03-01T08:06:17;7.03;58.83
71117;SHT31;58775;46.992;9.518;2023-03-01T08:08:18;6.70;59.20
71117;SHT31;58775;46.992;9.518;2023-03-01T08:10:19;7.05;58.69
71117;SHT31;58775;46.992;9.518;2023-03-01T08:12:20;7.42;56.95
71117;SHT31;58775;46.992;9.518;2023-03-01T08:14:21;7.69;57.35
71117;SHT31;58775;46.992;9.518;2023-03-01T08:16:23;7.17;58.31
71117;SHT31;58775;46.992;9.518;2023-03-01T08:18:25;6.59;58.07
71117;SHT31;58775;46.992;9.518;2023-03-01T08:20:26;7.79;56.82
71117;SHT31;58775;46.992;9.518;2023-03-01T08:22:27;7.80;55.90
71117;SHT31;58775;46.992;9.518;2023-03-01T08:24:28;7.51;56.29
71117;SHT31;58775;46.992;9.518;2023-03-01T08:26:30;7.24;56.92
71117;SHT31;58775;46.992;9.518;2023-03-01T08:28:31;7.24;57.36
71117;SHT31;58775;46.992;9.518;2023-03-01T08:30:33;7.58;56.80
71117;SHT31;58775;46.992;9.518;2023-03-01T08:32:37;7.38;56.61
71117;SHT31;58775;46.992;9.518;2023-03-01T08:34:38;7.32;56.29
71117;SHT31;58775;46.992;9.518;2023-03-01T08:36:42;7.47;56.92
71117;SHT31;58775;46.992;9.518;2023-03-01T08:38:43;7.15;57.67
71117;SHT31;58775;46.992;9.518;2023-03-01T08:40:44;7.45;57.13
71117;SHT31;58775;46.992;9.518;2023-03-01T08:42:45;7.27;58.42
71117;SHT31;58775;46.992;9.518;2023-03-01T08:44:46;7.75;57.77
71117;SHT31;58775;46.992;9.518;2023-03-01T08:46:47;7.75;56.78
71117;SHT31;58775;46.992;9.518;2023-03-01T08:48:50;8.43;55.58
71117;SHT31;58775;46.992;9.518;2023-03-01T08:50:51;8.27;53.88
71117;SHT31;58775;46.992;9.518;2023-03-01T08:52:52;8.69;54.57
71117;SHT31;58775;46.992;9.518;2023-03-01T08:54:53;8.37;55.36
71117;SHT31;58775;46.992;9.518;2023-03-01T08:56:54;8.58;53.55
71117;SHT31;58775;46.992;9.518;2023-03-01T08:58:55;8.33;54.80
71117;SHT31;58775;46.992;9.518;2023-03-01T09:00:56;9.26;52.61
71117;SHT31;58775;46.992;9.518;2023-03-01T09:02:58;9.20;52.55
71117;SHT31;58775;46.992;9.518;2023-03-01T09:04:59;10.08;52.45
71117;SHT31;58775;46.992;9.518;2023-03-01T09:07:00;10.62;51.29
71117;SHT31;58775;46.992;9.518;2023-03-01T09:09:02;10.87;49.62
71117;SHT31;58775;46.992;9.518;2023-03-01T09:11:05;10.67;50.34
71117;SHT31;58775;46.992;9.518;2023-03-01T09:13:06;10.80;48.74
71117;SHT31;58775;46.992;9.518;2023-03-01T09:15:08;10.34;51.72
71117;SHT31;58775;46.992;9.518;2023-03-01T09:17:09;10.11;50.27
71117;SHT31;58775;46.992;9.518;2023-03-01T09:19:10;9.95;50.97
71117;SHT31;58775;46.992;9.518;2023-03-01T09:21:14;10.22;50.75
71117;SHT31;58775;46.992;9.518;2023-03-01T09:23:15;10.46;50.12
71117;SHT31;58775;46.992;9.518;2023-03-01T09:25:17;9.98;50.99
71117;SHT31;58775;46.992;9.518;2023-03-01T09:27:18;9.87;51.70
71117;SHT31;58775;46.992;9.518;2023-03-01T09:29:20;10.15;50.73
71117;SHT31;58775;46.992;9.518;2023-03-01T09:31:22;10.60;50.56
71117;SHT31;58775;46.992;9.518;2023-03-01T09:33:23;9.44;51.42
71117;SHT31;58775;46.992;9.518;2023-03-01T09:35:24;10.04;50.84
71117;SHT31;58775;46.992;9.518;2023-03-01T09:37:27;9.98;51.41
71117;SHT31;58775;46.992;9.518;2023-03-01T09:39:28;10.86;50.03
71117;SHT31;58775;46.992;9.518;2023-03-01T09:41:54;10.15;49.93
71117;SHT31;58775;46.992;9.518;2023-03-01T09:46:38;9.88;52.33
71117;SHT31;58775;46.992;9.518;2023-03-01T09:49:02;9.61;49.25
71117;SHT31;58775;46.992;9.518;2023-03-01T09:51:09;10.59;50.57
71117;SHT31;58775;46.992;9.518;2023-03-01T09:53:16;11.37;47.85
71117;SHT31;58775;46.992;9.518;2023-03-01T09:57:50;12.16;47.29
71117;SHT31;58775;46.992;9.518;2023-03-01T10:02:30;11.57;49.44
71117;SHT31;58775;46.992;9.518;2023-03-01T10:04:49;12.34;45.50
71117;SHT31;58775;46.992;9.518;2023-03-01T10:07:02;11.08;50.24
71117;SHT31;58775;46.992;9.518;2023-03-01T10:09:16;12.64;45.28
71117;SHT31;58775;46.992;9.518;2023-03-01T10:11:22;12.39;44.67
71117;SHT31;58775;46.992;9.518;2023-03-01T10:13:58;11.45;49.51
71117;SHT31;58775;46.992;9.518;2023-03-01T10:18:30;11.28;50.22
71117;SHT31;58775;46.992;9.518;2023-03-01T10:20:46;12.03;46.40
71117;SHT31;58775;46.992;9.518;2023-03-01T10:22:53;11.13;51.77
71117;SHT31;58775;46.992;9.518;2023-03-01T10:24:59;12.53;46.28
71117;SHT31;58775;46.992;9.518;2023-03-01T10:27:09;12.47;45.58
71117;SHT31;58775;46.992;9.518;2023-03-01T10:29:12;12.87;45.67
71117;SHT31;58775;46.992;9.518;2023-03-01T10:31:17;13.02;45.12
71117;SHT31;58775;46.992;9.518;2023-03-01T10:33:22;12.36;47.93
71117;SHT31;58775;46.992;9.518;2023-03-01T10:35:26;12.41;46.15
71117;SHT31;58775;46.992;9.518;2023-03-01T10:37:28;11.78;48.52
71117;SHT31;58775;46.992;9.518;2023-03-01T10:39:30;11.69;47.29
71117;SHT31;58775;46.992;9.518;2023-03-01T10:41:31;11.59;48.13
71117;SHT31;58775;46.992;9.518;2023-03-01T10:43:43;11.83;47.15
71117;SHT31;58775;46.992;9.518;2023-03-01T10:45:46;11.67;47.34
71117;SHT31;58775;46.992;9.518;2023-03-01T10:48:03;11.64;48.48
71117;SHT31;58775;46.992;9.518;2023-03-01T10:50:17;11.99;48.01
71117;SHT31;58775;46.992;9.518;2023-03-01T10:52:21;11.68;48.23
71117;SHT31;58775;46.992;9.518;2023-03-01T10:54:27;11.24;49.39
71117;SHT31;58775;46.992;9.518;2023-03-01T10:56:46;11.65;48.88
71117;SHT31;58775;46.992;9.518;2023-03-01T10:59:04;11.98;48.10
71117;SHT31;58775;46.992;9.518;2023-03-01T11:01:27;11.75;48.99
71117;SHT31;58775;46.992;9.518;2023-03-01T11:05:31;11.89;48.07
71117;SHT31;58775;46.992;9.518;2023-03-01T11:07:50;11.83;48.56
71117;SHT31;58775;46.992;9.518;2023-03-01T11:09:51;11.71;49.13
71117;SHT31;58775;46.992;9.518;2023-03-01T11:11:54;10.95;50.15
71117;SHT31;58775;46.992;9.518;2023-03-01T11:14:03;11.61;48.85
71117;SHT31;58775;46.992;9.518;2023-03-01T11:16:10;10.50;51.06
71117;SHT31;58775;46.992;9.518;2023-03-01T11:18:20;10.96;50.59
71117;SHT31;58775;46.992;9.518;2023-03-01T11:20:33;11.11;49.85
71117;SHT31;58775;46.992;9.518;2023-03-01T11:23:23;11.91;49.33
71117;SHT31;58775;46.992;9.518;2023-03-01T11:25:11;10.83;52.42
71117;SHT31;58775;46.992;9.518;2023-03-01T11:29:35;11.04;51.48
71117;SHT31;58775;46.992;9.518;2023-03-01T11:31:36;11.18;49.34
71117;SHT31;58775;46.992;9.518;2023-03-01T11:36:03;12.25;48.30
71117;SHT31;58775;46.992;9.518;2023-03-01T11:40:23;12.08;49.53
71117;SHT31;58775;46.992;9.518;2023-03-01T11:44:59;13.45;46.44
71117;SHT31;58775;46.992;9.518;2023-03-01T11:47:17;13.51;45.42
71117;SHT31;58775;46.992;9.518;2023-03-01T11:56:43;11.88;47.96
71117;SHT31;58775;46.992;9.518;2023-03-01T12:01:31;10.84;48.59
71117;SHT31;58775;46.992;9.518;2023-03-01T12:08:20;12.73;46.40
71117;SHT31;58775;46.992;9.518;2023-03-01T12:10:29;12.43;48.28
71117;SHT31;58775;46.992;9.518;2023-03-01T12:12:42;11.96;48.05
71117;SHT31;58775;46.992;9.518;2023-03-01T12:15:15;10.72;47.99
71117;SHT31;58775;46.992;9.518;2023-03-01T12:22:15;10.89;51.39
71117;SHT31;58775;46.992;9.518;2023-03-01T12:25:10;10.69;51.37
71117;SHT31;58775;46.992;9.518;2023-03-01T12:27:20;11.32;49.10
71117;SHT31;58775;46.992;9.518;2023-03-01T12:31:45;11.99;47.30
71117;SHT31;58775;46.992;9.518;2023-03-01T12:38:41;12.29;47.59
71117;SHT31;58775;46.992;9.518;2023-03-01T12:41:26;11.68;47.40
71117;SHT31;58775;46.992;9.518;2023-03-01T12:44:07;11.07;48.62
71117;SHT31;58775;46.992;9.518;2023-03-01T12:46:17;12.06;47.45
71117;SHT31;58775;46.992;9.518;2023-03-01T12:48:47;10.93;48.73
71117;SHT31;58775;46.992;9.518;2023-03-01T12:50:53;11.35;47.93
71117;SHT31;58775;46.992;9.518;2023-03-01T12:52:57;10.97;49.06
71117;SHT31;58775;46.992;9.518;2023-03-01T12:55:01;9.58;50.71
71117;SHT31;58775;46.992;9.518;2023-03-01T12:59:47;7.72;55.29
71117;SHT31;58775;46.992;9.518;2023-03-01T13:02:20;7.97;56.74
71117;SHT31;58775;46.992;9.518;2023-03-01T13:04:28;7.34;56.55
71117;SHT31;58775;46.992;9.518;2023-03-01T13:11:23;6.88;58.62
71117;SHT31;58775;46.992;9.518;2023-03-01T13:13:26;6.96;59.79
71117;SHT31;58775;46.992;9.518;2023-03-01T13:15:31;6.49;62.31
71117;SHT31;58775;46.992;9.518;2023-03-01T13:17:41;6.26;60.45
71117;SHT31;58775;46.992;9.518;2023-03-01T13:19:56;5.77;62.23
71117;SHT31;58775;46.992;9.518;2023-03-01T13:21:59;5.77;62.95
71117;SHT31;58775;46.992;9.518;2023-03-01T13:24:01;5.43;63.27
71117;SHT31;58775;46.992;9.518;2023-03-01T13:26:17;5.63;62.49
71117;SHT31;58775;46.992;9.518;2023-03-01T13:30:40;5.68;62.67
71117;SHT31;58775;46.992;9.518;2023-03-01T13:32:42;5.79;63.14
71117;SHT31;58775;46.992;9.518;2023-03-01T13:34:45;5.87;63.25
71117;SHT31;58775;46.992;9.518;2023-03-01T13:36:48;5.34;64.08
71117;SHT31;58775;46.992;9.518;2023-03-01T13:40:59;5.03;63.62
71117;SHT31;58775;46.992;9.518;2023-03-01T13:43:27;5.36;63.98
71117;SHT31;58775;46.992;9.518;2023-03-01T13:45:42;5.24;64.51
71117;SHT31;58775;46.992;9.518;2023-03-01T13:47:45;5.19;63.81
71117;SHT31;58775;46.992;9.518;2023-03-01T13:50:01;4.92;65.97
71117;SHT31;58775;46.992;9.518;2023-03-01T13:52:03;5.08;64.92
71117;SHT31;58775;46.992;9.518;2023-03-01T13:54:11;5.12;63.88
71117;SHT31;58775;46.992;9.518;2023-03-01T13:56:23;4.93;64.34
71117;SHT31;58775;46.992;9.518;2023-03-01T13:58:29;4.97;65.13
71117;SHT31;58775;46.992;9.518;2023-03-01T14:00:39;4.36;65.63
71117;SHT31;58775;46.992;9.518;2023-03-01T14:02:40;4.60;65.93
71117;SHT31;58775;46.992;9.518;2023-03-01T14:04:42;4.85;65.62
71117;SHT31;58775;46.992;9.518;2023-03-01T14:06:43;4.85;65.80
71117;SHT31;58775;46.992;9.518;2023-03-01T14:08:45;5.09;65.08
71117;SHT31;58775;46.992;9.518;2023-03-01T14:11:13;4.76;65.19
71117;SHT31;58775;46.992;9.518;2023-03-01T14:13:36;4.85;65.19
71117;SHT31;58775;46.992;9.518;2023-03-01T14:15:50;4.97;65.87
71117;SHT31;58775;46.992;9.518;2023-03-01T14:18:03;4.89;65.09